Michipicoten — CFG8060 — position and weather

sailwx.info

Track history (hours):
 
Tides and Currents Weather Stations Pressure Air Temp Water Temp Dewpoint Dewpoint Depression Visibility Wind Speed Wind Dir Waves Ship Positions

Michipicoten

Last reported at 2015-May-29 19:27 UTC. Time now 2015-May-29 20:23 UTC.
Position N 46°49' W 085°36'.

Length 213 m.

Type: Ship. MMSI: 316002501.

Date/timePositionNaut miles runAvg speedWind from/ knotsBaromVisibWave heightAir tempDewpointWater temp
2015-May-29 19:27N 46°49' W 085°36'66 5.9
2015-May-29 08:16N 46°36' W 087°10'1014.3
2015-May-29 07:34N 46°38' W 086°56'1414.1
2015-May-29 06:34N 46°41' W 086°36'2914.1
2015-May-29 04:32N 46°46' W 085°55'1414.3
2015-May-29 03:34N 46°47' W 085°35'2014.1
2015-May-29 02:10N 46°48' W 085°06'3411.4
2015-May-28 23:10N 46°30' W 084°24'14 2.0
2015-May-28 16:11N 46°35' W 084°43'913.7
2015-May-28 15:32N 46°42' W 084°50'1412.8
2015-May-28 14:25N 46°50' W 085°08'34 0.9
2015-May-27 00:19N 46°27' W 084°32'44 1.0
2015-May-25 04:33N 45°54' W 083°50'4 0.2
2015-May-24 12:20N 45°52' W 083°46'1012.7
2015-May-24 11:34N 45°60' W 083°53'1711.2
2015-May-24 10:04N 46°13' W 084°09'6 8.4
2015-May-24 09:24N 46°18' W 084°13'15 4.5
2015-May-24 06:09N 46°30' W 084°24'2 2.3
2015-May-24 05:26N 46°31' W 084°23'0 0.0
2015-May-24 04:32N 46°31' W 084°23'15 2.7
2015-May-23 23:08N 46°35' W 084°43'41 2.2
2015-May-23 04:25N 46°47' W 085°41'56 1.4
2015-May-21 13:20N 46°31' W 084°23'0 0.0
2015-May-21 12:34N 46°31' W 084°23'0 0.0
2015-May-21 11:34N 46°31' W 084°23'0 0.1
2015-May-21 10:34N 46°31' W 084°23'0 0.0
2015-May-21 09:31N 46°31' W 084°23'0 0.0
2015-May-21 08:20N 46°31' W 084°23'0 0.0
2015-May-21 07:33N 46°31' W 084°23'0 0.0
2015-May-21 06:33N 46°31' W 084°23'0 0.0
2015-May-21 05:32N 46°31' W 084°23'31 2.5
2015-May-20 17:28N 46°04' W 084°01'910.4
2015-May-20 16:33N 45°56' W 083°53'28 2.7
2015-May-20 06:18N 45°55' W 083°13'  
Track history (hours):
 
Tides and Currents Weather Stations Pressure Air Temp Water Temp Dewpoint Dewpoint Depression Visibility Wind Speed Wind Dir Waves Ship Positions

Michipicoten

Last reported at 2015-May-29 19:27 UTC. Time now 2015-May-29 20:23 UTC.
Position N 46°49' W 085°36'.

Length 213 m.

Type: Ship. MMSI: 316002501.

Date/timePositionNaut miles runAvg speedWind from/ knotsBaromVisibWave heightAir tempDewpointWater temp
2015-May-29 19:27N 46°49' W 085°36'66 5.9
2015-May-29 08:16N 46°36' W 087°10'1014.3
2015-May-29 07:34N 46°38' W 086°56'1414.1
2015-May-29 06:34N 46°41' W 086°36'2914.1
2015-May-29 04:32N 46°46' W 085°55'1414.3
2015-May-29 03:34N 46°47' W 085°35'2014.1
2015-May-29 02:10N 46°48' W 085°06'3411.4
2015-May-28 23:10N 46°30' W 084°24'14 2.0
2015-May-28 16:11N 46°35' W 084°43'913.7
2015-May-28 15:32N 46°42' W 084°50'1412.8
2015-May-28 14:25N 46°50' W 085°08'34 0.9
2015-May-27 00:19N 46°27' W 084°32'44 1.0
2015-May-25 04:33N 45°54' W 083°50'4 0.2
2015-May-24 12:20N 45°52' W 083°46'1012.7
2015-May-24 11:34N 45°60' W 083°53'1711.2
2015-May-24 10:04N 46°13' W 084°09'6 8.4
2015-May-24 09:24N 46°18' W 084°13'15 4.5
2015-May-24 06:09N 46°30' W 084°24'2 2.3
2015-May-24 05:26N 46°31' W 084°23'0 0.0
2015-May-24 04:32N 46°31' W 084°23'15 2.7
2015-May-23 23:08N 46°35' W 084°43'41 2.2
2015-May-23 04:25N 46°47' W 085°41'56 1.4
2015-May-21 13:20N 46°31' W 084°23'0 0.0
2015-May-21 12:34N 46°31' W 084°23'0 0.0
2015-May-21 11:34N 46°31' W 084°23'0 0.1
2015-May-21 10:34N 46°31' W 084°23'0 0.0
2015-May-21 09:31N 46°31' W 084°23'0 0.0
2015-May-21 08:20N 46°31' W 084°23'0 0.0
2015-May-21 07:33N 46°31' W 084°23'0 0.0
2015-May-21 06:33N 46°31' W 084°23'0 0.0
2015-May-21 05:32N 46°31' W 084°23'31 2.5
2015-May-20 17:28N 46°04' W 084°01'910.4
2015-May-20 16:33N 45°56' W 083°53'28 2.7
2015-May-20 06:18N 45°55' W 083°13'  

Dump ship's entire track history